Time;durP1;ratioP1;P1;durP2;ratioP2;P2;SDS_P1;SDS_P2;PMS_P1;PMS_P2;Temp;Humidity;BMP_temperature;BMP_pressure;BME280_temperature;BME280_humidity;BME280_pressure;Samples;Min_cycle;Max_cycle;Signal;HPM_P1;HPM_P2
2024/01/02 00:01:32;;;;;;;;;;;;;;;8.48;56.39;100233.22;5447732;32;34580;-72
2024/01/02 00:04:35;;;;;;;;;;;;;;;8.68;56.24;100226.41;5466540;32;34015;-71
2024/01/02 00:07:37;;;;;;;;;;;;;;;8.46;57.09;100242.91;5462040;32;34474;-69
2024/01/02 00:10:39;;;;;;;;;;;;;;;8.54;56.67;100233.87;5466897;32;34370;-70
2024/01/02 00:13:41;;;;;;;;;;;;;;;8.72;56.49;100231.56;5461619;32;33717;-71
2024/01/02 00:16:44;;;;;;;;;;;;;;;8.86;56.25;100229.31;5450812;32;33592;-70
2024/01/02 00:19:46;;;;;;;;;;;;;;;9.08;55.56;100227.66;5464388;32;33746;-72
2024/01/02 00:22:48;;;;;;;;;;;;;;;8.93;56.05;100231.66;5448539;32;34798;-70
2024/01/02 00:25:50;;;;;;;;;;;;;;;8.99;55.70;100241.09;5449178;32;33982;-73
2024/01/02 00:28:52;;;;;;;;;;;;;;;8.81;56.40;100239.09;5459175;32;34026;-70
2024/01/02 00:31:55;;;;;;;;;;;;;;;8.78;56.51;100234.81;5444074;32;33295;-70
2024/01/02 00:34:57;;;;;;;;;;;;;;;8.41;57.56;100238.66;5447330;32;33683;-71
2024/01/02 00:37:59;;;;;;;;;;;;;;;8.72;56.86;100244.66;5471922;32;33401;-71
2024/01/02 00:41:02;;;;;;;;;;;;;;;8.70;57.08;100239.47;5464523;32;34014;-69
2024/01/02 00:44:04;;;;;;;;;;;;;;;8.57;56.97;100239.03;5462073;32;34402;-70
2024/01/02 00:47:09;;;;;;;;;;;;;;;8.50;57.34;100248.00;5466288;32;33409;-70
2024/01/02 00:50:12;;;;;;;;;;;;;;;8.32;57.53;100256.41;5461918;32;33718;-73
2024/01/02 00:53:14;;;;;;;;;;;;;;;8.43;57.05;100250.84;5466246;32;33692;-69
2024/01/02 00:56:16;;;;;;;;;;;;;;;8.44;57.46;100250.81;5446948;32;34211;-72
2024/01/02 00:59:19;;;;;;;;;;;;;;;8.39;57.67;100266.66;5463232;32;33976;-70
2024/01/02 01:02:22;;;;;;;;;;;;;;;8.32;57.96;100256.41;5464251;32;33762;-70
2024/01/02 01:05:24;;;;;;;;;;;;;;;8.33;58.29;100269.44;5461719;32;33921;-73
2024/01/02 01:08:26;;;;;;;;;;;;;;;8.50;57.69;100265.44;5466023;32;34389;-69
2024/01/02 01:11:28;;;;;;;;;;;;;;;8.32;58.23;100262.50;5461992;32;33804;-72
2024/01/02 01:14:31;;;;;;;;;;;;;;;8.36;57.79;100268.50;5465773;32;33703;-70
2024/01/02 01:17:33;;;;;;;;;;;;;;;8.13;58.32;100257.00;5446690;32;33375;-71
2024/01/02 01:20:35;;;;;;;;;;;;;;;8.11;58.44;100260.53;5463206;32;33819;-72
2024/01/02 01:23:37;;;;;;;;;;;;;;;8.12;58.10;100263.13;5446961;32;34648;-70
2024/01/02 01:26:40;;;;;;;;;;;;;;;8.01;58.78;100257.37;5461686;32;33483;-69
2024/01/02 01:29:42;;;;;;;;;;;;;;;8.01;58.59;100253.87;5448515;32;33862;-70
2024/01/02 01:32:44;;;;;;;;;;;;;;;8.18;58.31;100256.84;5459334;32;33231;-74
2024/01/02 01:35:46;;;;;;;;;;;;;;;8.11;58.43;100256.19;5465853;32;33899;-69
2024/01/02 01:38:49;;;;;;;;;;;;;;;8.05;58.62;100251.13;5466766;32;34257;-73
2024/01/02 01:41:51;;;;;;;;;;;;;;;7.96;58.79;100242.69;5462354;32;33927;-74
2024/01/02 01:44:53;;;;;;;;;;;;;;;8.30;58.05;100245.09;5464881;32;34609;-71
2024/01/02 01:47:55;;;;;;;;;;;;;;;8.31;57.91;100247.69;5460421;32;33660;-69
2024/01/02 01:50:57;;;;;;;;;;;;;;;8.29;57.74;100251.25;5465697;32;33927;-72
2024/01/02 01:54:00;;;;;;;;;;;;;;;8.43;57.14;100241.22;5461193;32;33691;-72
2024/01/02 01:57:02;;;;;;;;;;;;;;;8.42;57.19;100244.75;5466356;32;33874;-72
2024/01/02 02:00:05;;;;;;;;;;;;;;;7.86;58.38;100250.00;5440045;32;34417;-70
2024/01/02 02:03:07;;;;;;;;;;;;;;;8.11;58.11;100243.09;5458869;32;34306;-72
2024/01/02 02:06:10;;;;;;;;;;;;;;;8.24;57.81;100234.81;5465955;32;33736;-74
2024/01/02 02:09:12;;;;;;;;;;;;;;;8.57;56.83;100235.56;5446324;32;34287;-73
2024/01/02 02:12:15;;;;;;;;;;;;;;;8.18;57.05;100235.91;5464990;32;33985;-70
2024/01/02 02:15:17;;;;;;;;;;;;;;;7.90;57.73;100233.28;5460712;32;33935;-70
2024/01/02 02:18:19;;;;;;;;;;;;;;;7.65;58.65;100246.22;5465452;32;34147;-73
2024/01/02 02:21:21;;;;;;;;;;;;;;;7.89;58.78;100244.66;5460665;32;33637;-72
2024/01/02 02:24:24;;;;;;;;;;;;;;;8.17;57.60;100247.25;5460048;32;33777;-70
2024/01/02 02:27:27;;;;;;;;;;;;;;;7.94;58.19;100248.00;5464795;32;34457;-70
2024/01/02 02:30:29;;;;;;;;;;;;;;;7.91;58.18;100241.97;5458257;32;33700;-72
2024/01/02 02:33:31;;;;;;;;;;;;;;;7.64;59.23;100249.75;5471500;32;33764;-69
2024/01/02 02:36:33;;;;;;;;;;;;;;;7.44;59.64;100242.47;5445239;32;34333;-71
2024/01/02 02:39:35;;;;;;;;;;;;;;;7.31;59.74;100252.44;5473977;32;33795;-74
2024/01/02 02:42:38;;;;;;;;;;;;;;;7.29;60.63;100249.00;5459423;32;33814;-70
2024/01/02 02:45:40;;;;;;;;;;;;;;;7.16;60.16;100247.63;5460057;32;34095;-70
2024/01/02 02:48:42;;;;;;;;;;;;;;;7.14;61.17;100249.41;5465292;32;33756;-70
2024/01/02 02:51:44;;;;;;;;;;;;;;;7.76;58.70;100253.78;5459527;32;33705;-73
2024/01/02 02:54:46;;;;;;;;;;;;;;;7.21;60.37;100255.31;5465242;32;33768;-73
2024/01/02 02:57:48;;;;;;;;;;;;;;;7.12;60.59;100252.97;5459864;32;34514;-75
2024/01/02 03:00:51;;;;;;;;;;;;;;;7.51;59.45;100249.25;5464732;32;34064;-74
2024/01/02 03:03:53;;;;;;;;;;;;;;;6.90;60.43;100245.72;5443248;32;33880;-73
2024/01/02 03:06:56;;;;;;;;;;;;;;;6.66;62.10;100251.56;5459665;32;33712;-71
2024/01/02 03:09:58;;;;;;;;;;;;;;;6.99;61.50;100250.69;5464787;32;33248;-72
2024/01/02 03:13:00;;;;;;;;;;;;;;;7.33;60.26;100253.22;5438521;32;33993;-73
2024/01/02 03:16:02;;;;;;;;;;;;;;;6.18;62.99;100259.66;5463835;32;34088;-69
2024/01/02 03:19:04;;;;;;;;;;;;;;;6.32;62.57;100244.56;5459573;32;33974;-73
2024/01/02 03:22:06;;;;;;;;;;;;;;;6.27;63.02;100240.34;5463841;32;34443;-72
2024/01/02 03:25:08;;;;;;;;;;;;;;;6.39;62.62;100230.47;5430196;32;33201;-70
2024/01/02 03:28:10;;;;;;;;;;;;;;;6.19;63.57;100230.09;5440316;32;34156;-69
2024/01/02 03:31:13;;;;;;;;;;;;;;;6.34;63.54;100234.94;5449247;32;34295;-74
2024/01/02 03:34:15;;;;;;;;;;;;;;;6.27;63.69;100227.28;5460935;32;33676;-70
2024/01/02 03:37:17;;;;;;;;;;;;;;;7.12;60.95;100224.22;5470138;32;33742;-73
2024/01/02 03:40:19;;;;;;;;;;;;;;;7.17;60.37;100204.91;5468185;32;33069;-73
2024/01/02 03:43:22;;;;;;;;;;;;;;;7.37;59.51;100206.09;5451187;32;33589;-69
2024/01/02 03:46:24;;;;;;;;;;;;;;;7.13;59.92;100200.66;5448933;32;33288;-70
2024/01/02 03:49:26;;;;;;;;;;;;;;;7.26;59.70;100203.78;5447958;32;33942;-72
2024/01/02 03:52:28;;;;;;;;;;;;;;;6.27;62.85;100206.41;5452213;32;33846;-71
2024/01/02 03:55:31;;;;;;;;;;;;;;;6.90;60.99;100210.91;5462360;32;33400;-71
2024/01/02 03:58:33;;;;;;;;;;;;;;;6.99;60.45;100216.72;5466579;32;33972;-70
2024/01/02 04:01:41;;;;;;;;;;;;;;;6.90;60.58;100219.59;5461923;32;33777;-73
2024/01/02 04:04:43;;;;;;;;;;;;;;;6.93;60.77;100219.50;5464012;32;33213;-72
2024/01/02 04:07:46;;;;;;;;;;;;;;;6.99;60.02;100214.09;5464137;32;34316;-69
2024/01/02 04:10:48;;;;;;;;;;;;;;;6.70;60.68;100229.72;5461990;32;34928;-72
2024/01/02 04:13:50;;;;;;;;;;;;;;;6.42;61.11;100233.00;5466205;32;34196;-72
2024/01/02 04:16:52;;;;;;;;;;;;;;;7.02;60.33;100234.94;5462148;32;34446;-69
2024/01/02 04:19:54;;;;;;;;;;;;;;;7.22;59.74;100246.59;5452210;32;33962;-69
2024/01/02 04:22:57;;;;;;;;;;;;;;;7.02;59.84;100234.09;5461152;32;33586;-71
2024/01/02 04:25:59;;;;;;;;;;;;;;;6.97;60.33;100249.03;5463150;32;33957;-72
2024/01/02 04:29:02;;;;;;;;;;;;;;;6.84;60.50;100245.03;5461888;32;33962;-71
2024/01/02 04:32:04;;;;;;;;;;;;;;;7.06;60.18;100239.16;5444425;32;34408;-71
2024/01/02 04:35:06;;;;;;;;;;;;;;;7.07;60.19;100238.25;5465996;32;32834;-73
2024/01/02 04:38:09;;;;;;;;;;;;;;;6.93;60.71;100240.41;5461705;32;34566;-70
2024/01/02 04:41:13;;;;;;;;;;;;;;;6.70;61.29;100230.56;5452249;32;33247;-69
2024/01/02 04:44:15;;;;;;;;;;;;;;;6.87;61.09;100235.31;5461358;32;33214;-70
2024/01/02 04:47:17;;;;;;;;;;;;;;;6.74;61.28;100240.00;5448891;32;33759;-74
2024/01/02 04:50:19;;;;;;;;;;;;;;;6.90;60.87;100244.84;5464735;32;34595;-73
2024/01/02 04:53:21;;;;;;;;;;;;;;;6.42;61.63;100253.00;5461515;32;34067;-72
2024/01/02 04:56:24;;;;;;;;;;;;;;;6.29;62.05;100238.53;5466514;32;33739;-73
2024/01/02 04:59:26;;;;;;;;;;;;;;;6.27;62.91;100228.16;5461469;32;33641;-71
2024/01/02 05:02:28;;;;;;;;;;;;;;;6.44;62.47;100225.09;5450643;32;34396;-71
2024/01/02 05:05:30;;;;;;;;;;;;;;;5.94;63.70;100225.44;5461292;32;33926;-70
2024/01/02 05:08:34;;;;;;;;;;;;;;;5.57;64.88;100221.88;5462627;32;33311;-69
2024/01/02 05:11:36;;;;;;;;;;;;;;;5.82;65.25;100230.03;5457116;32;34656;-74
2024/01/02 05:14:39;;;;;;;;;;;;;;;6.60;62.16;100225.59;5461404;32;34454;-73
2024/01/02 05:17:41;;;;;;;;;;;;;;;5.65;64.75;100225.16;5466254;32;34155;-73
2024/01/02 05:20:43;;;;;;;;;;;;;;;6.90;60.94;100230.03;5461347;32;34112;-70
2024/01/02 05:23:45;;;;;;;;;;;;;;;6.88;60.57;100223.13;5465736;32;33280;-68
2024/01/02 05:26:48;;;;;;;;;;;;;;;5.96;63.87;100228.00;5461267;32;33564;-70
2024/01/02 05:29:50;;;;;;;;;;;;;;;6.49;61.06;100218.88;5464996;32;33914;-71
2024/01/02 05:32:52;;;;;;;;;;;;;;;6.20;62.67;100226.59;5469376;32;33431;-74
2024/01/02 05:35:54;;;;;;;;;;;;;;;6.38;62.04;100215.69;5464011;32;33680;-69
2024/01/02 05:38:56;;;;;;;;;;;;;;;6.46;61.60;100208.53;5475384;32;33867;-69
2024/01/02 05:41:58;;;;;;;;;;;;;;;6.36;61.87;100211.41;5442241;32;33193;-69
2024/01/02 05:45:01;;;;;;;;;;;;;;;6.17;62.38;100213.59;5465680;32;33886;-70
2024/01/02 05:48:03;;;;;;;;;;;;;;;6.02;62.40;100216.56;5459116;32;34887;-69
2024/01/02 05:51:06;;;;;;;;;;;;;;;6.07;62.62;100219.94;5460705;32;34431;-69
2024/01/02 05:54:08;;;;;;;;;;;;;;;5.71;64.09;100227.66;5465972;32;33640;-71
2024/01/02 05:57:10;;;;;;;;;;;;;;;5.07;66.42;100236.78;5460915;32;34662;-70
2024/01/02 06:00:13;;;;;;;;;;;;;;;5.94;63.53;100229.78;5451153;32;33931;-74
2024/01/02 06:03:15;;;;;;;;;;;;;;;5.57;64.89;100225.34;5461089;32;33715;-69
2024/01/02 06:06:17;;;;;;;;;;;;;;;5.44;65.00;100232.56;5466199;32;33357;-69
2024/01/02 06:09:19;;;;;;;;;;;;;;;5.27;66.04;100228.56;5461992;32;34442;-69
2024/01/02 06:12:21;;;;;;;;;;;;;;;5.11;66.75;100234.09;5461310;32;33374;-73
2024/01/02 06:15:23;;;;;;;;;;;;;;;5.47;65.46;100228.16;5452228;32;34351;-71
2024/01/02 06:18:25;;;;;;;;;;;;;;;5.36;65.46;100234.47;5460510;32;33530;-70
2024/01/02 06:21:27;;;;;;;;;;;;;;;5.30;65.70;100233.75;5465705;32;34202;-72
2024/01/02 06:24:29;;;;;;;;;;;;;;;5.53;65.36;100221.06;5460281;32;34262;-72
2024/01/02 06:27:31;;;;;;;;;;;;;;;5.27;65.95;100223.34;5452325;32;34459;-70
2024/01/02 06:30:33;;;;;;;;;;;;;;;5.50;65.79;100238.53;5461548;32;34740;-73
2024/01/02 06:36:41;;;;;;;;;;;;;;;4.58;68.75;100235.06;5402147;32;34287;-72
2024/01/02 06:39:43;;;;;;;;;;;;;;;4.60;68.79;100239.34;5407506;32;33993;-67
2024/01/02 06:42:45;;;;;;;;;;;;;;;4.68;69.58;100238.38;5418681;32;33329;-72
2024/01/02 06:45:47;;;;;;;;;;;;;;;4.53;70.14;100242.09;5410580;32;33381;-67
2024/01/02 06:48:49;;;;;;;;;;;;;;;4.32;70.27;100238.09;5418378;32;33753;-68
2024/01/02 06:51:51;;;;;;;;;;;;;;;4.21;71.71;100238.25;5400545;32;33708;-72
2024/01/02 06:54:53;;;;;;;;;;;;;;;4.20;72.36;100239.16;5406257;32;33865;-71
2024/01/02 06:57:55;;;;;;;;;;;;;;;4.15;71.39;100237.50;5426702;32;34479;-71
2024/01/02 07:00:57;;;;;;;;;;;;;;;4.58;71.13;100245.50;5424455;32;34030;-72
2024/01/02 07:03:59;;;;;;;;;;;;;;;4.62;69.60;100234.97;5416333;32;33226;-71
2024/01/02 07:07:01;;;;;;;;;;;;;;;5.13;68.74;100231.44;5398465;32;33236;-72
2024/01/02 07:10:03;;;;;;;;;;;;;;;4.70;69.59;100242.69;5427181;32;33559;-71
2024/01/02 07:13:05;;;;;;;;;;;;;;;4.32;70.53;100245.91;5430872;32;32280;-72
2024/01/02 07:16:07;;;;;;;;;;;;;;;5.01;69.31;100239.50;5428218;32;33307;-72
2024/01/02 07:19:09;;;;;;;;;;;;;;;4.28;72.55;100252.03;5421602;32;33238;-68
2024/01/02 07:22:11;;;;;;;;;;;;;;;3.72;75.56;100251.97;5415151;32;33350;-72
2024/01/02 07:25:14;;;;;;;;;;;;;;;4.13;74.22;100253.13;5433641;32;34059;-71
2024/01/02 07:28:16;;;;;;;;;;;;;;;4.38;72.54;100247.53;5421557;32;33139;-68
2024/01/02 07:31:18;;;;;;;;;;;;;;;4.25;74.17;100252.06;5406163;32;33696;-72
2024/01/02 07:34:20;;;;;;;;;;;;;;;4.84;71.35;100256.31;5410940;32;33238;-68
2024/01/02 07:37:22;;;;;;;;;;;;;;;4.44;73.54;100244.84;5425415;32;34528;-71
2024/01/02 07:40:24;;;;;;;;;;;;;;;4.86;69.31;100257.13;5428764;32;33579;-68
2024/01/02 07:43:28;;;;;;;;;;;;;;;4.15;72.42;100250.50;5423706;32;33909;-72
2024/01/02 07:46:30;;;;;;;;;;;;;;;3.74;74.61;100250.22;5431807;32;34106;-72
2024/01/02 07:49:32;;;;;;;;;;;;;;;4.28;74.33;100244.22;5429815;32;33406;-71
2024/01/02 07:52:34;;;;;;;;;;;;;;;4.77;72.89;100239.06;5429289;32;34172;-72
2024/01/02 07:55:36;;;;;;;;;;;;;;;4.00;74.03;100247.25;5433742;32;34325;-72
2024/01/02 07:58:38;;;;;;;;;;;;;;;3.91;74.17;100242.16;5427037;32;33905;-71
2024/01/02 08:01:39;;;;;;;;;;;;;;;4.21;74.80;100227.00;5411882;32;33803;-71
2024/01/02 08:04:41;;;;;;;;;;;;;;;4.59;73.11;100228.97;5424907;32;34106;-71
2024/01/02 08:07:43;;;;;;;;;;;;;;;5.24;69.80;100226.03;5433971;32;33187;-71
2024/01/02 08:10:45;;;;;;;;;;;;;;;4.83;69.66;100232.88;5428904;32;35543;-67
2024/01/02 08:13:47;;;;;;;;;;;;;;;4.50;71.14;100216.09;5427327;32;33803;-68
2024/01/02 08:16:50;;;;;;;;;;;;;;;4.43;73.31;100235.31;5436003;32;33247;-73
2024/01/02 08:19:52;;;;;;;;;;;;;;;4.18;76.69;100224.44;5435482;32;33291;-72
2024/01/02 08:22:54;;;;;;;;;;;;;;;4.38;76.02;100224.09;5433677;32;33816;-74
2024/01/02 08:25:56;;;;;;;;;;;;;;;4.41;75.16;100226.69;5434621;32;33646;-74
2024/01/02 08:28:58;;;;;;;;;;;;;;;4.55;72.89;100228.16;5416974;32;34257;-75
2024/01/02 08:32:00;;;;;;;;;;;;;;;4.48;73.89;100213.53;5425577;32;33462;-69
2024/01/02 08:35:03;;;;;;;;;;;;;;;4.91;71.63;100223.19;5433907;32;33601;-74
2024/01/02 08:38:05;;;;;;;;;;;;;;;4.73;72.85;100231.34;5425672;32;32074;-74
2024/01/02 08:41:08;;;;;;;;;;;;;;;5.40;71.43;100219.63;5431989;32;33594;-80
2024/01/02 08:44:10;;;;;;;;;;;;;;;4.28;74.16;100216.47;5419087;32;34246;-75
2024/01/02 08:47:12;;;;;;;;;;;;;;;4.97;71.25;100212.66;5411667;32;33175;-73
2024/01/02 08:50:14;;;;;;;;;;;;;;;5.06;72.15;100216.84;5429889;32;32822;-69
2024/01/02 08:53:16;;;;;;;;;;;;;;;5.50;70.61;100207.25;5427189;32;33561;-70
2024/01/02 08:56:19;;;;;;;;;;;;;;;6.24;67.80;100199.50;5432618;32;33879;-73
2024/01/02 08:59:21;;;;;;;;;;;;;;;6.18;67.65;100200.53;5423984;32;33559;-72
2024/01/02 09:02:23;;;;;;;;;;;;;;;6.56;66.27;100201.31;5428800;32;33708;-70
2024/01/02 09:05:26;;;;;;;;;;;;;;;6.08;68.63;100200.78;5434193;32;33709;-72
2024/01/02 09:08:28;;;;;;;;;;;;;;;5.85;69.08;100193.44;5429640;32;33700;-72
2024/01/02 09:11:31;;;;;;;;;;;;;;;6.44;66.88;100189.44;5417942;32;33579;-69
2024/01/02 09:14:35;;;;;;;;;;;;;;;6.34;67.53;100193.16;5430563;32;33619;-70
2024/01/02 09:17:37;;;;;;;;;;;;;;;6.24;66.14;100192.53;5419968;32;33655;-70
2024/01/02 09:20:39;;;;;;;;;;;;;;;5.57;69.16;100188.00;5428161;32;34445;-74
2024/01/02 09:23:41;;;;;;;;;;;;;;;6.59;66.66;100182.13;5420524;32;34536;-70
2024/01/02 09:26:44;;;;;;;;;;;;;;;6.78;64.64;100173.75;5426177;32;33868;-72
2024/01/02 09:29:46;;;;;;;;;;;;;;;6.29;66.62;100174.16;5408091;32;33723;-73
2024/01/02 09:32:49;;;;;;;;;;;;;;;6.19;67.44;100162.25;5423461;32;34395;-80
2024/01/02 09:35:51;;;;;;;;;;;;;;;5.90;68.61;100166.34;5405365;32;33789;-81
2024/01/02 09:38:53;;;;;;;;;;;;;;;5.61;69.12;100158.38;5416733;32;33275;-69
2024/01/02 09:42:10;;;;;;;;;;;;;;;6.78;65.23;100149.37;5428539;32;33643;-74
2024/01/02 09:45:24;;;;;;;;;;;;;;;6.17;67.02;100148.34;5426219;32;34170;-69
2024/01/02 09:48:26;;;;;;;;;;;;;;;5.39;72.36;100148.38;5414771;32;34423;-74
2024/01/02 09:51:32;;;;;;;;;;;;;;;6.07;69.27;100154.72;5419053;32;33906;-75
2024/01/02 09:54:37;;;;;;;;;;;;;;;5.83;70.13;100154.34;5412113;32;34547;-77
2024/01/02 09:57:48;;;;;;;;;;;;;;;6.50;66.97;100151.84;5417100;32;33568;-76
2024/01/02 10:00:58;;;;;;;;;;;;;;;6.69;66.12;100152.22;5420921;32;33527;-70
2024/01/02 10:04:09;;;;;;;;;;;;;;;5.91;68.05;100149.84;5425354;32;33239;-68
2024/01/02 10:07:11;;;;;;;;;;;;;;;6.49;66.72;100151.00;5419908;32;34013;-73
2024/01/02 10:10:17;;;;;;;;;;;;;;;6.86;64.86;100141.31;5425356;32;33872;-75
2024/01/02 10:13:24;;;;;;;;;;;;;;;7.07;65.17;100133.72;5424209;32;33889;-81
2024/01/02 10:16:41;;;;;;;;;;;;;;;7.43;63.44;100115.25;5424425;32;34465;-78
2024/01/02 10:20:03;;;;;;;;;;;;;;;6.93;64.10;100125.44;5430232;32;33208;-75
2024/01/02 10:23:06;;;;;;;;;;;;;;;6.89;65.70;100126.44;5419720;32;33473;-68
2024/01/02 10:26:12;;;;;;;;;;;;;;;7.51;63.63;100118.50;5421649;32;33907;-73
2024/01/02 10:29:18;;;;;;;;;;;;;;;7.56;63.70;100113.12;5426801;32;34493;-70
2024/01/02 10:32:27;;;;;;;;;;;;;;;7.10;64.30;100118.87;5420529;32;33738;-73
2024/01/02 10:35:45;;;;;;;;;;;;;;;6.95;65.98;100112.31;5422787;32;34808;-70
2024/01/02 10:39:16;;;;;;;;;;;;;;;7.26;65.48;100113.12;5419795;32;33801;-77
2024/01/02 10:42:37;;;;;;;;;;;;;;;7.37;65.43;100098.91;5403336;32;33172;-74
2024/01/02 10:45:42;;;;;;;;;;;;;;;7.74;64.16;100082.91;5427501;32;33339;-78
2024/01/02 10:49:03;;;;;;;;;;;;;;;7.07;65.50;100081.47;5424261;32;33780;-72
2024/01/02 10:52:05;;;;;;;;;;;;;;;7.36;65.90;100078.91;5427504;32;33642;-68
2024/01/02 10:55:16;;;;;;;;;;;;;;;7.15;65.08;100077.75;5426235;32;33347;-73
2024/01/02 10:58:23;;;;;;;;;;;;;;;7.01;67.42;100079.03;5427361;32;33354;-67
2024/01/02 11:01:25;;;;;;;;;;;;;;;7.72;64.18;100074.25;5423122;32;35910;-76
2024/01/02 11:04:31;;;;;;;;;;;;;;;7.44;64.88;100067.28;5413439;32;33277;-69
2024/01/02 11:07:39;;;;;;;;;;;;;;;7.24;67.01;100054.84;5426367;32;34406;-68
2024/01/02 11:10:49;;;;;;;;;;;;;;;7.04;65.27;100049.34;5422301;32;34055;-75
2024/01/02 11:13:52;;;;;;;;;;;;;;;6.94;66.77;100042.69;5426086;32;33996;-69
2024/01/02 11:16:56;;;;;;;;;;;;;;;7.88;64.15;100021.38;5425446;32;33970;-75
2024/01/02 11:20:06;;;;;;;;;;;;;;;8.26;62.70;100024.44;5424055;32;33270;-73
2024/01/02 11:23:13;;;;;;;;;;;;;;;8.38;63.10;100023.19;5427207;32;33462;-72
2024/01/02 11:26:25;;;;;;;;;;;;;;;8.72;61.63;100016.69;5431910;32;34180;-78
2024/01/02 11:29:28;;;;;;;;;;;;;;;8.14;64.10;100014.38;5424634;32;34342;-70
2024/01/02 11:32:44;;;;;;;;;;;;;;;8.74;62.77;100020.97;5428949;32;34071;-67
2024/01/02 11:35:56;;;;;;;;;;;;;;;9.23;61.11;100017.31;5431633;32;33842;-68
2024/01/02 11:38:58;;;;;;;;;;;;;;;9.63;58.85;100015.72;5427897;32;33704;-71
2024/01/02 11:42:03;;;;;;;;;;;;;;;8.35;63.32;100012.75;5423463;32;33296;-70
2024/01/02 11:45:08;;;;;;;;;;;;;;;9.27;60.98;100004.06;5429370;32;34508;-78
2024/01/02 11:48:14;;;;;;;;;;;;;;;8.92;60.99;100001.06;5427896;32;34476;-69
2024/01/02 11:51:27;;;;;;;;;;;;;;;9.52;60.34;99993.44;5431460;32;33198;-85
2024/01/02 11:54:48;;;;;;;;;;;;;;;8.80;61.34;99985.81;5428832;32;33684;-70
2024/01/02 11:57:51;;;;;;;;;;;;;;;10.15;58.82;99966.25;5429329;32;34849;-73
2024/01/02 12:00:59;;;;;;;;;;;;;;;10.04;57.21;99960.59;5429444;32;34867;-78
2024/01/02 12:04:22;;;;;;;;;;;;;;;10.45;56.76;99957.97;5417898;32;33258;-69
2024/01/02 12:07:27;;;;;;;;;;;;;;;9.91;57.55;99954.19;5423866;32;34218;-75
2024/01/02 12:10:30;;;;;;;;;;;;;;;10.27;58.37;99931.59;5415336;32;33168;-79
2024/01/02 12:13:36;;;;;;;;;;;;;;;11.49;53.94;99921.44;5427420;32;34141;-79
2024/01/02 12:16:38;;;;;;;;;;;;;;;10.63;56.35;99928.22;5429548;32;33263;-75
2024/01/02 12:19:40;;;;;;;;;;;;;;;10.76;56.22;99929.34;5428399;32;34289;-68
2024/01/02 12:22:43;;;;;;;;;;;;;;;10.96;54.24;99920.50;5418174;32;34387;-91
2024/01/02 12:25:45;;;;;;;;;;;;;;;10.50;57.06;99921.84;5428974;32;33962;-73
2024/01/02 12:28:48;;;;;;;;;;;;;;;10.84;55.70;99921.94;5416444;32;34424;-78
2024/01/02 12:31:50;;;;;;;;;;;;;;;9.37;59.94;99908.38;5424693;32;33674;-70
2024/01/02 12:35:01;;;;;;;;;;;;;;;10.06;58.56;99911.53;5423828;32;33903;-70
2024/01/02 12:38:17;;;;;;;;;;;;;;;8.98;61.28;99908.25;5426243;32;33119;-78
2024/01/02 12:41:20;;;;;;;;;;;;;;;9.99;59.58;99889.94;5428711;32;34277;-78
2024/01/02 12:44:25;;;;;;;;;;;;;;;8.66;63.71;99898.12;5407019;32;34355;-74
2024/01/02 12:47:27;;;;;;;;;;;;;;;9.60;60.74;99892.53;5420107;32;33104;-67
2024/01/02 12:50:29;;;;;;;;;;;;;;;9.95;59.96;99892.75;5423042;32;33474;-82
2024/01/02 12:53:33;;;;;;;;;;;;;;;9.82;60.87;99883.72;5430095;32;34105;-78
2024/01/02 12:56:37;;;;;;;;;;;;;;;9.53;61.77;99877.09;5426013;32;33999;-81
2024/01/02 12:59:39;;;;;;;;;;;;;;;9.78;61.13;99878.59;5418411;32;33217;-76
2024/01/02 13:02:41;;;;;;;;;;;;;;;9.91;60.43;99881.53;5407685;32;33625;-69
2024/01/02 13:05:43;;;;;;;;;;;;;;;9.82;61.05;99868.81;5420683;32;33584;-80
2024/01/02 13:08:48;;;;;;;;;;;;;;;9.55;62.12;99873.50;5412986;32;33397;-76
2024/01/02 13:11:50;;;;;;;;;;;;;;;9.42;62.54;99867.94;5421742;32;33297;-80
2024/01/02 13:14:52;;;;;;;;;;;;;;;9.95;61.42;99848.97;5430887;32;34555;-77
2024/01/02 13:17:54;;;;;;;;;;;;;;;9.38;63.17;99837.50;5428222;32;33349;-81
2024/01/02 13:20:57;;;;;;;;;;;;;;;9.34;63.03;99830.69;5427132;32;34042;-79
2024/01/02 13:24:03;;;;;;;;;;;;;;;10.02;61.40;99825.94;5423637;32;32944;-80
2024/01/02 13:27:05;;;;;;;;;;;;;;;9.34;63.80;99816.72;5425783;32;34731;-80
2024/01/02 13:30:07;;;;;;;;;;;;;;;9.83;62.62;99814.56;5427404;32;34333;-85
2024/01/02 13:33:09;;;;;;;;;;;;;;;10.18;61.22;99803.31;5400960;32;33828;-69
2024/01/02 13:36:12;;;;;;;;;;;;;;;9.75;62.44;99801.78;5417784;32;34135;-75
2024/01/02 13:39:50;;;;;;;;;;;;;;;10.23;61.52;99785.56;5424053;32;34064;-76
2024/01/02 13:42:55;;;;;;;;;;;;;;;10.34;60.77;99787.69;5386711;32;33713;-74
2024/01/02 13:46:13;;;;;;;;;;;;;;;10.04;61.94;99775.03;5416461;32;34137;-70
2024/01/02 13:49:15;;;;;;;;;;;;;;;10.00;61.95;99780.53;5424949;32;33955;-68
2024/01/02 13:52:24;;;;;;;;;;;;;;;9.39;63.89;99778.88;5413790;32;34388;-81
2024/01/02 13:55:27;;;;;;;;;;;;;;;10.21;61.93;99778.66;5428028;32;34863;-78
2024/01/02 13:58:29;;;;;;;;;;;;;;;9.78;63.03;99770.16;5413067;32;34274;-68
2024/01/02 14:01:40;;;;;;;;;;;;;;;10.27;61.79;99773.16;5433555;32;33895;-75
2024/01/02 14:04:42;;;;;;;;;;;;;;;9.86;62.84;99778.53;5416938;32;33102;-82
2024/01/02 14:07:44;;;;;;;;;;;;;;;10.28;62.22;99759.09;5409860;32;33683;-70
2024/01/02 14:10:46;;;;;;;;;;;;;;;10.37;61.59;99757.78;5430351;32;33812;-77
2024/01/02 14:13:49;;;;;;;;;;;;;;;10.24;61.92;99763.66;5430050;32;34165;-87
2024/01/02 14:16:51;;;;;;;;;;;;;;;10.49;61.54;99751.94;5428712;32;34041;-75
2024/01/02 14:19:55;;;;;;;;;;;;;;;10.50;61.32;99753.69;5414204;32;33307;-79
2024/01/02 14:22:57;;;;;;;;;;;;;;;9.59;64.56;99759.63;5423782;32;33290;-82
2024/01/02 14:26:04;;;;;;;;;;;;;;;10.00;62.81;99756.91;5431982;32;33469;-88
2024/01/02 14:29:07;;;;;;;;;;;;;;;10.15;62.94;99743.03;5421695;32;34376;-84
2024/01/02 14:32:21;;;;;;;;;;;;;;;10.31;62.43;99730.06;5429560;32;33410;-70
2024/01/02 14:35:25;;;;;;;;;;;;;;;10.56;60.85;99720.06;5430449;32;33324;-88
2024/01/02 14:38:30;;;;;;;;;;;;;;;10.04;62.00;99717.28;5427587;32;35457;-77
2024/01/02 14:41:41;;;;;;;;;;;;;;;10.27;61.43;99694.38;5428932;32;33301;-79
2024/01/02 14:44:56;;;;;;;;;;;;;;;10.12;61.88;99690.69;5428790;32;33428;-70
2024/01/02 14:48:18;;;;;;;;;;;;;;;10.09;61.87;99682.94;5426910;32;34654;-71
2024/01/02 14:51:31;;;;;;;;;;;;;;;9.91;62.12;99668.06;5415606;32;34172;-68
2024/01/02 14:54:48;;;;;;;;;;;;;;;9.94;61.86;99676.66;5424147;32;33888;-77
2024/01/02 14:57:51;;;;;;;;;;;;;;;9.81;62.36;99665.03;5428737;32;33679;-68
2024/01/02 15:01:00;;;;;;;;;;;;;;;9.22;63.24;99666.88;5427885;32;33772;-78
2024/01/02 15:04:03;;;;;;;;;;;;;;;9.05;64.72;99663.31;5425240;32;34250;-69
2024/01/02 15:07:08;;;;;;;;;;;;;;;8.98;64.63;99656.63;5427700;32;34427;-71
2024/01/02 15:10:17;;;;;;;;;;;;;;;9.50;63.53;99665.63;5432975;32;34203;-72
2024/01/02 15:13:20;;;;;;;;;;;;;;;9.93;61.60;99642.63;5427141;32;33180;-80
2024/01/02 15:16:36;;;;;;;;;;;;;;;9.62;62.90;99645.84;5430787;32;33825;-70
2024/01/02 15:20:09;;;;;;;;;;;;;;;9.96;61.76;99638.06;5416121;32;33540;-71
2024/01/02 15:23:44;;;;;;;;;;;;;;;9.02;64.87;99652.97;5423048;32;33191;-70
2024/01/02 15:26:49;;;;;;;;;;;;;;;9.04;65.76;99654.59;5406531;32;33418;-69
2024/01/02 15:29:55;;;;;;;;;;;;;;;9.01;65.64;99665.19;5412564;32;33561;-70
2024/01/02 15:32:57;;;;;;;;;;;;;;;8.95;66.57;99662.84;5424600;32;32768;-74
2024/01/02 15:36:09;;;;;;;;;;;;;;;9.19;65.56;99663.53;5429282;32;34159;-71
2024/01/02 15:39:16;;;;;;;;;;;;;;;9.16;65.66;99664.53;5410617;32;34221;-72
2024/01/02 15:42:38;;;;;;;;;;;;;;;9.17;66.08;99666.22;5424665;32;33904;-75
2024/01/02 15:45:43;;;;;;;;;;;;;;;9.24;65.38;99664.19;5420007;32;32269;-74
2024/01/02 15:48:49;;;;;;;;;;;;;;;9.16;66.59;99656.66;5425042;32;33172;-71
2024/01/02 15:51:57;;;;;;;;;;;;;;;9.47;64.81;99661.38;5424509;32;33259;-74
2024/01/02 15:55:09;;;;;;;;;;;;;;;9.07;65.99;99670.16;5424773;32;33329;-72
2024/01/02 15:58:24;;;;;;;;;;;;;;;9.42;65.92;99659.88;5417742;32;33314;-72
2024/01/02 16:01:30;;;;;;;;;;;;;;;9.14;66.40;99663.72;5428578;32;33813;-74
2024/01/02 16:04:50;;;;;;;;;;;;;;;9.54;65.75;99672.44;5426822;32;33693;-70